sensor_id;sensor_type;location;lat;lon;timestamp;temperature;humidity
15384;DHT22;7790;53.022;12.968;2023-04-21T00:02:24;19.30;45.50
15384;DHT22;7790;53.022;12.968;2023-04-21T00:06:25;19.30;45.50
15384;DHT22;7790;53.022;12.968;2023-04-21T00:10:26;19.30;45.60
15384;DHT22;7790;53.022;12.968;2023-04-21T00:14:27;19.20;45.50
15384;DHT22;7790;53.022;12.968;2023-04-21T00:18:28;19.20;45.50
15384;DHT22;7790;53.022;12.968;2023-04-21T00:22:29;19.20;45.60
15384;DHT22;7790;53.022;12.968;2023-04-21T00:26:30;19.20;45.50
15384;DHT22;7790;53.022;12.968;2023-04-21T00:30:31;19.20;45.60
15384;DHT22;7790;53.022;12.968;2023-04-21T00:34:32;19.10;45.50
15384;DHT22;7790;53.022;12.968;2023-04-21T00:38:32;19.10;45.50
15384;DHT22;7790;53.022;12.968;2023-04-21T00:42:33;19.10;45.50
15384;DHT22;7790;53.022;12.968;2023-04-21T00:46:35;19.10;45.60
15384;DHT22;7790;53.022;12.968;2023-04-21T00:50:37;19.10;45.60
15384;DHT22;7790;53.022;12.968;2023-04-21T00:54:40;19.10;45.60
15384;DHT22;7790;53.022;12.968;2023-04-21T00:58:41;19.10;45.50
15384;DHT22;7790;53.022;12.968;2023-04-21T01:02:42;19.10;45.50
15384;DHT22;7790;53.022;12.968;2023-04-21T01:06:45;19.10;45.50
15384;DHT22;7790;53.022;12.968;2023-04-21T01:10:46;19.10;45.50
15384;DHT22;7790;53.022;12.968;2023-04-21T01:14:46;19.10;45.50
15384;DHT22;7790;53.022;12.968;2023-04-21T01:18:48;19.10;45.60
15384;DHT22;7790;53.022;12.968;2023-04-21T01:22:49;19.00;45.60
15384;DHT22;7790;53.022;12.968;2023-04-21T01:26:51;19.00;45.60
15384;DHT22;7790;53.022;12.968;2023-04-21T01:30:52;19.00;45.50
15384;DHT22;7790;53.022;12.968;2023-04-21T01:34:57;19.00;45.60
15384;DHT22;7790;53.022;12.968;2023-04-21T01:38:58;19.00;45.60
15384;DHT22;7790;53.022;12.968;2023-04-21T01:42:59;19.00;45.50
15384;DHT22;7790;53.022;12.968;2023-04-21T01:47:00;19.00;45.50
15384;DHT22;7790;53.022;12.968;2023-04-21T01:51:01;19.00;45.60
15384;DHT22;7790;53.022;12.968;2023-04-21T01:55:02;19.00;45.50
15384;DHT22;7790;53.022;12.968;2023-04-21T01:59:03;19.00;45.50
15384;DHT22;7790;53.022;12.968;2023-04-21T02:03:04;19.00;45.70
15384;DHT22;7790;53.022;12.968;2023-04-21T02:07:05;19.10;45.70
15384;DHT22;7790;53.022;12.968;2023-04-21T02:11:06;19.30;45.60
15384;DHT22;7790;53.022;12.968;2023-04-21T02:15:07;19.60;45.30
15384;DHT22;7790;53.022;12.968;2023-04-21T02:19:08;19.80;45.20
15384;DHT22;7790;53.022;12.968;2023-04-21T02:23:09;19.90;44.90
15384;DHT22;7790;53.022;12.968;2023-04-21T02:27:10;20.10;44.60
15384;DHT22;7790;53.022;12.968;2023-04-21T02:31:11;20.20;45.00
15384;DHT22;7790;53.022;12.968;2023-04-21T02:35:13;20.30;44.60
15384;DHT22;7790;53.022;12.968;2023-04-21T02:39:14;20.40;44.50
15384;DHT22;7790;53.022;12.968;2023-04-21T02:43:15;20.60;44.40
15384;DHT22;7790;53.022;12.968;2023-04-21T02:47:16;20.60;44.40
15384;DHT22;7790;53.022;12.968;2023-04-21T02:51:17;20.70;44.30
15384;DHT22;7790;53.022;12.968;2023-04-21T02:55:18;20.80;44.20
15384;DHT22;7790;53.022;12.968;2023-04-21T02:59:19;20.90;44.20
15384;DHT22;7790;53.022;12.968;2023-04-21T03:03:19;21.00;44.30
15384;DHT22;7790;53.022;12.968;2023-04-21T03:07:20;21.00;44.10
15384;DHT22;7790;53.022;12.968;2023-04-21T03:11:21;21.00;44.10
15384;DHT22;7790;53.022;12.968;2023-04-21T03:15:22;21.10;43.80
15384;DHT22;7790;53.022;12.968;2023-04-21T03:19:23;20.90;44.40
15384;DHT22;7790;53.022;12.968;2023-04-21T03:23:24;20.90;44.50
15384;DHT22;7790;53.022;12.968;2023-04-21T03:27:25;20.90;44.70
15384;DHT22;7790;53.022;12.968;2023-04-21T03:31:26;20.80;44.80
15384;DHT22;7790;53.022;12.968;2023-04-21T03:35:27;20.70;44.80
15384;DHT22;7790;53.022;12.968;2023-04-21T03:39:28;20.70;44.90
15384;DHT22;7790;53.022;12.968;2023-04-21T03:43:29;20.70;44.80
15384;DHT22;7790;53.022;12.968;2023-04-21T03:47:30;20.80;44.80
15384;DHT22;7790;53.022;12.968;2023-04-21T03:51:32;20.80;44.80
15384;DHT22;7790;53.022;12.968;2023-04-21T03:55:32;20.80;44.60
15384;DHT22;7790;53.022;12.968;2023-04-21T03:59:33;20.90;44.60
15384;DHT22;7790;53.022;12.968;2023-04-21T04:03:34;20.90;44.50
15384;DHT22;7790;53.022;12.968;2023-04-21T04:07:35;20.90;44.50
15384;DHT22;7790;53.022;12.968;2023-04-21T04:11:36;21.00;44.40
15384;DHT22;7790;53.022;12.968;2023-04-21T04:15:37;21.00;44.40
15384;DHT22;7790;53.022;12.968;2023-04-21T04:19:37;21.00;44.40
15384;DHT22;7790;53.022;12.968;2023-04-21T04:23:38;21.10;44.40
15384;DHT22;7790;53.022;12.968;2023-04-21T04:27:39;21.10;44.40
15384;DHT22;7790;53.022;12.968;2023-04-21T04:31:40;21.10;44.40
15384;DHT22;7790;53.022;12.968;2023-04-21T04:35:41;21.00;44.30
15384;DHT22;7790;53.022;12.968;2023-04-21T04:39:42;21.00;44.40
15384;DHT22;7790;53.022;12.968;2023-04-21T04:43:43;20.90;44.50
15384;DHT22;7790;53.022;12.968;2023-04-21T04:47:44;20.90;44.60
15384;DHT22;7790;53.022;12.968;2023-04-21T04:51:45;20.90;44.60
15384;DHT22;7790;53.022;12.968;2023-04-21T04:55:46;20.90;44.50
15384;DHT22;7790;53.022;12.968;2023-04-21T04:59:47;20.90;44.40
15384;DHT22;7790;53.022;12.968;2023-04-21T05:03:48;20.90;44.40
15384;DHT22;7790;53.022;12.968;2023-04-21T05:07:49;20.90;44.40
15384;DHT22;7790;53.022;12.968;2023-04-21T05:11:50;20.90;44.40
15384;DHT22;7790;53.022;12.968;2023-04-21T05:15:56;20.80;44.40
15384;DHT22;7790;53.022;12.968;2023-04-21T05:19:58;20.70;44.60
15384;DHT22;7790;53.022;12.968;2023-04-21T05:23:59;20.70;44.70
15384;DHT22;7790;53.022;12.968;2023-04-21T05:28:00;20.60;44.70
15384;DHT22;7790;53.022;12.968;2023-04-21T05:32:01;20.60;44.70
15384;DHT22;7790;53.022;12.968;2023-04-21T05:36:06;20.50;44.70
15384;DHT22;7790;53.022;12.968;2023-04-21T05:40:08;20.40;44.80
15384;DHT22;7790;53.022;12.968;2023-04-21T05:44:09;20.40;44.80
15384;DHT22;7790;53.022;12.968;2023-04-21T05:48:10;20.40;44.80
15384;DHT22;7790;53.022;12.968;2023-04-21T05:52:10;20.30;44.90
15384;DHT22;7790;53.022;12.968;2023-04-21T05:56:12;20.30;44.90
15384;DHT22;7790;53.022;12.968;2023-04-21T06:00:14;20.30;45.10
15384;DHT22;7790;53.022;12.968;2023-04-21T06:04:15;20.20;45.00
15384;DHT22;7790;53.022;12.968;2023-04-21T06:08:16;20.20;44.90
15384;DHT22;7790;53.022;12.968;2023-04-21T06:12:17;20.20;45.00
15384;DHT22;7790;53.022;12.968;2023-04-21T06:16:21;20.10;45.10
15384;DHT22;7790;53.022;12.968;2023-04-21T06:20:21;20.10;45.20
15384;DHT22;7790;53.022;12.968;2023-04-21T06:24:22;20.10;45.10
15384;DHT22;7790;53.022;12.968;2023-04-21T06:28:26;20.00;45.20
15384;DHT22;7790;53.022;12.968;2023-04-21T06:32:27;20.00;45.20
15384;DHT22;7790;53.022;12.968;2023-04-21T06:36:28;20.00;45.30
15384;DHT22;7790;53.022;12.968;2023-04-21T06:40:29;20.00;45.30
15384;DHT22;7790;53.022;12.968;2023-04-21T06:44:30;20.00;45.80
15384;DHT22;7790;53.022;12.968;2023-04-21T06:48:32;20.00;45.70
15384;DHT22;7790;53.022;12.968;2023-04-21T06:52:32;19.90;46.20
15384;DHT22;7790;53.022;12.968;2023-04-21T06:56:33;19.80;45.20
15384;DHT22;7790;53.022;12.968;2023-04-21T07:00:34;19.70;44.80
15384;DHT22;7790;53.022;12.968;2023-04-21T07:04:35;19.90;45.40
15384;DHT22;7790;53.022;12.968;2023-04-21T07:08:36;19.90;46.00
15384;DHT22;7790;53.022;12.968;2023-04-21T07:12:37;19.90;46.10
15384;DHT22;7790;53.022;12.968;2023-04-21T07:16:38;19.90;46.00
15384;DHT22;7790;53.022;12.968;2023-04-21T07:20:39;19.90;46.00
15384;DHT22;7790;53.022;12.968;2023-04-21T07:24:39;19.90;46.00
15384;DHT22;7790;53.022;12.968;2023-04-21T07:28:40;19.80;45.90
15384;DHT22;7790;53.022;12.968;2023-04-21T07:32:41;19.90;45.90
15384;DHT22;7790;53.022;12.968;2023-04-21T07:36:42;19.90;46.00
15384;DHT22;7790;53.022;12.968;2023-04-21T07:40:43;19.80;45.90
15384;DHT22;7790;53.022;12.968;2023-04-21T07:44:44;19.80;45.90
15384;DHT22;7790;53.022;12.968;2023-04-21T07:48:45;19.80;46.00
15384;DHT22;7790;53.022;12.968;2023-04-21T07:52:46;19.90;46.00
15384;DHT22;7790;53.022;12.968;2023-04-21T07:56:48;19.80;45.90
15384;DHT22;7790;53.022;12.968;2023-04-21T08:00:49;19.80;45.80
15384;DHT22;7790;53.022;12.968;2023-04-21T08:04:50;19.80;45.90
15384;DHT22;7790;53.022;12.968;2023-04-21T08:08:52;19.80;45.90
15384;DHT22;7790;53.022;12.968;2023-04-21T08:12:55;19.80;45.90
15384;DHT22;7790;53.022;12.968;2023-04-21T08:16:56;19.80;45.80
15384;DHT22;7790;53.022;12.968;2023-04-21T08:20:57;19.80;45.90
15384;DHT22;7790;53.022;12.968;2023-04-21T08:24:58;19.90;45.80
15384;DHT22;7790;53.022;12.968;2023-04-21T08:28:59;19.90;45.90
15384;DHT22;7790;53.022;12.968;2023-04-21T08:33:00;19.90;45.90
15384;DHT22;7790;53.022;12.968;2023-04-21T08:37:01;19.80;45.90
15384;DHT22;7790;53.022;12.968;2023-04-21T08:41:03;19.80;45.90
15384;DHT22;7790;53.022;12.968;2023-04-21T08:45:04;19.80;45.90
15384;DHT22;7790;53.022;12.968;2023-04-21T08:49:08;19.80;45.90
15384;DHT22;7790;53.022;12.968;2023-04-21T08:53:10;19.80;45.90
15384;DHT22;7790;53.022;12.968;2023-04-21T08:57:11;19.80;45.80
15384;DHT22;7790;53.022;12.968;2023-04-21T09:01:11;19.80;45.80
15384;DHT22;7790;53.022;12.968;2023-04-21T09:05:24;19.80;45.90
15384;DHT22;7790;53.022;12.968;2023-04-21T09:09:25;19.80;45.90
15384;DHT22;7790;53.022;12.968;2023-04-21T09:13:31;19.80;45.90
15384;DHT22;7790;53.022;12.968;2023-04-21T09:17:32;19.80;46.00
15384;DHT22;7790;53.022;12.968;2023-04-21T09:21:33;19.80;46.50
15384;DHT22;7790;53.022;12.968;2023-04-21T09:25:37;19.80;45.80
15384;DHT22;7790;53.022;12.968;2023-04-21T09:29:44;19.80;46.00
15384;DHT22;7790;53.022;12.968;2023-04-21T09:33:48;19.80;46.00
15384;DHT22;7790;53.022;12.968;2023-04-21T09:37:50;19.80;46.00
15384;DHT22;7790;53.022;12.968;2023-04-21T09:41:50;19.80;45.90
15384;DHT22;7790;53.022;12.968;2023-04-21T09:45:52;19.80;45.90
15384;DHT22;7790;53.022;12.968;2023-04-21T09:49:54;19.80;46.00
15384;DHT22;7790;53.022;12.968;2023-04-21T09:53:58;19.80;46.00
15384;DHT22;7790;53.022;12.968;2023-04-21T09:58:01;19.80;46.10
15384;DHT22;7790;53.022;12.968;2023-04-21T10:02:06;19.80;45.90
15384;DHT22;7790;53.022;12.968;2023-04-21T10:06:07;19.80;46.10
15384;DHT22;7790;53.022;12.968;2023-04-21T10:10:18;19.80;46.00
15384;DHT22;7790;53.022;12.968;2023-04-21T10:14:20;19.80;46.10
15384;DHT22;7790;53.022;12.968;2023-04-21T10:18:22;19.80;45.90
15384;DHT22;7790;53.022;12.968;2023-04-21T10:22:30;19.80;45.90
15384;DHT22;7790;53.022;12.968;2023-04-21T10:26:33;19.80;46.00
15384;DHT22;7790;53.022;12.968;2023-04-21T10:30:35;19.80;46.10
15384;DHT22;7790;53.022;12.968;2023-04-21T10:34:38;19.80;46.00
15384;DHT22;7790;53.022;12.968;2023-04-21T10:38:41;19.80;46.00
15384;DHT22;7790;53.022;12.968;2023-04-21T10:42:42;19.70;46.10
15384;DHT22;7790;53.022;12.968;2023-04-21T10:46:51;19.80;46.10
15384;DHT22;7790;53.022;12.968;2023-04-21T10:50:52;19.80;46.10
15384;DHT22;7790;53.022;12.968;2023-04-21T10:58:57;19.80;44.30
15384;DHT22;7790;53.022;12.968;2023-04-21T11:03:04;20.00;42.70
15384;DHT22;7790;53.022;12.968;2023-04-21T11:07:12;20.00;40.50
15384;DHT22;7790;53.022;12.968;2023-04-21T11:11:21;19.90;38.10
15384;DHT22;7790;53.022;12.968;2023-04-21T11:15:22;20.00;37.80
15384;DHT22;7790;53.022;12.968;2023-04-21T11:19:23;19.90;36.60
15384;DHT22;7790;53.022;12.968;2023-04-21T11:23:25;19.80;40.20
15384;DHT22;7790;53.022;12.968;2023-04-21T11:27:27;20.00;38.10
15384;DHT22;7790;53.022;12.968;2023-04-21T11:31:29;20.00;39.50
15384;DHT22;7790;53.022;12.968;2023-04-21T11:35:30;20.00;37.50
15384;DHT22;7790;53.022;12.968;2023-04-21T11:39:31;20.00;36.60
15384;DHT22;7790;53.022;12.968;2023-04-21T11:43:32;20.10;36.50
15384;DHT22;7790;53.022;12.968;2023-04-21T11:47:33;19.90;34.40
15384;DHT22;7790;53.022;12.968;2023-04-21T11:51:39;19.90;35.60
15384;DHT22;7790;53.022;12.968;2023-04-21T11:55:44;20.00;37.00
15384;DHT22;7790;53.022;12.968;2023-04-21T11:59:45;20.00;36.80
15384;DHT22;7790;53.022;12.968;2023-04-21T12:03:51;19.90;38.20
15384;DHT22;7790;53.022;12.968;2023-04-21T12:07:54;19.80;37.30
15384;DHT22;7790;53.022;12.968;2023-04-21T12:11:56;19.70;40.00
15384;DHT22;7790;53.022;12.968;2023-04-21T12:16:01;19.50;40.80
15384;DHT22;7790;53.022;12.968;2023-04-21T12:20:06;19.40;41.20
15384;DHT22;7790;53.022;12.968;2023-04-21T12:24:08;19.40;40.90
15384;DHT22;7790;53.022;12.968;2023-04-21T12:28:08;19.40;41.30
15384;DHT22;7790;53.022;12.968;2023-04-21T12:32:09;19.30;41.70
15384;DHT22;7790;53.022;12.968;2023-04-21T12:36:10;19.30;41.80
15384;DHT22;7790;53.022;12.968;2023-04-21T12:40:11;19.30;41.70
15384;DHT22;7790;53.022;12.968;2023-04-21T12:44:12;19.20;41.80
15384;DHT22;7790;53.022;12.968;2023-04-21T12:48:13;19.30;42.30
15384;DHT22;7790;53.022;12.968;2023-04-21T12:52:14;19.30;41.70
15384;DHT22;7790;53.022;12.968;2023-04-21T12:56:15;19.40;41.50
15384;DHT22;7790;53.022;12.968;2023-04-21T13:00:16;19.40;42.00
15384;DHT22;7790;53.022;12.968;2023-04-21T13:04:17;19.30;42.20
15384;DHT22;7790;53.022;12.968;2023-04-21T13:08:18;19.30;42.40
15384;DHT22;7790;53.022;12.968;2023-04-21T13:12:18;19.30;42.60
15384;DHT22;7790;53.022;12.968;2023-04-21T13:16:19;19.30;42.70
15384;DHT22;7790;53.022;12.968;2023-04-21T13:20:20;19.30;42.90
15384;DHT22;7790;53.022;12.968;2023-04-21T13:24:21;19.30;43.10
15384;DHT22;7790;53.022;12.968;2023-04-21T13:28:22;19.30;43.30
15384;DHT22;7790;53.022;12.968;2023-04-21T13:32:23;19.30;43.40
15384;DHT22;7790;53.022;12.968;2023-04-21T13:36:28;19.30;43.50
15384;DHT22;7790;53.022;12.968;2023-04-21T13:40:29;19.30;43.70
15384;DHT22;7790;53.022;12.968;2023-04-21T13:44:30;19.20;44.30
15384;DHT22;7790;53.022;12.968;2023-04-21T13:48:31;19.30;43.80
15384;DHT22;7790;53.022;12.968;2023-04-21T13:52:32;19.20;43.90
15384;DHT22;7790;53.022;12.968;2023-04-21T13:56:35;19.30;44.60
15384;DHT22;7790;53.022;12.968;2023-04-21T14:00:37;19.20;44.00
15384;DHT22;7790;53.022;12.968;2023-04-21T14:04:38;19.20;44.20
15384;DHT22;7790;53.022;12.968;2023-04-21T14:08:39;19.20;44.20
15384;DHT22;7790;53.022;12.968;2023-04-21T14:12:40;19.20;44.30
15384;DHT22;7790;53.022;12.968;2023-04-21T14:16:41;19.20;44.40
15384;DHT22;7790;53.022;12.968;2023-04-21T14:20:44;19.20;44.40
15384;DHT22;7790;53.022;12.968;2023-04-21T14:24:45;19.20;44.50
15384;DHT22;7790;53.022;12.968;2023-04-21T14:28:49;19.20;44.50
15384;DHT22;7790;53.022;12.968;2023-04-21T14:32:50;19.20;44.60
15384;DHT22;7790;53.022;12.968;2023-04-21T14:36:51;19.20;44.60
15384;DHT22;7790;53.022;12.968;2023-04-21T14:40:52;19.20;44.80
15384;DHT22;7790;53.022;12.968;2023-04-21T14:44:54;19.20;44.80
15384;DHT22;7790;53.022;12.968;2023-04-21T14:48:55;19.20;44.80
15384;DHT22;7790;53.022;12.968;2023-04-21T14:52:57;19.20;44.90
15384;DHT22;7790;53.022;12.968;2023-04-21T14:56:57;19.20;44.80
15384;DHT22;7790;53.022;12.968;2023-04-21T15:01:00;19.20;45.10
15384;DHT22;7790;53.022;12.968;2023-04-21T15:05:01;19.40;45.10
15384;DHT22;7790;53.022;12.968;2023-04-21T15:09:03;19.40;44.80
15384;DHT22;7790;53.022;12.968;2023-04-21T15:13:04;19.60;44.70
15384;DHT22;7790;53.022;12.968;2023-04-21T15:17:05;19.70;44.40
15384;DHT22;7790;53.022;12.968;2023-04-21T15:21:06;19.90;44.70
15384;DHT22;7790;53.022;12.968;2023-04-21T15:25:07;20.10;44.80
15384;DHT22;7790;53.022;12.968;2023-04-21T15:29:11;20.30;44.70
15384;DHT22;7790;53.022;12.968;2023-04-21T15:33:16;20.40;44.20
15384;DHT22;7790;53.022;12.968;2023-04-21T15:37:17;20.40;44.50
15384;DHT22;7790;53.022;12.968;2023-04-21T15:41:19;20.40;44.60
15384;DHT22;7790;53.022;12.968;2023-04-21T15:45:20;20.30;44.70
15384;DHT22;7790;53.022;12.968;2023-04-21T15:49:21;20.30;44.70
15384;DHT22;7790;53.022;12.968;2023-04-21T15:53:23;20.30;44.80
15384;DHT22;7790;53.022;12.968;2023-04-21T15:57:24;20.20;44.70
15384;DHT22;7790;53.022;12.968;2023-04-21T16:01:27;20.20;45.10
15384;DHT22;7790;53.022;12.968;2023-04-21T16:05:28;20.20;45.10
15384;DHT22;7790;53.022;12.968;2023-04-21T16:09:29;20.10;45.10
15384;DHT22;7790;53.022;12.968;2023-04-21T16:13:30;20.10;45.20
15384;DHT22;7790;53.022;12.968;2023-04-21T16:17:31;20.10;45.30
15384;DHT22;7790;53.022;12.968;2023-04-21T16:21:32;20.00;45.40
15384;DHT22;7790;53.022;12.968;2023-04-21T16:25:33;20.00;45.30
15384;DHT22;7790;53.022;12.968;2023-04-21T16:29:34;20.00;45.40
15384;DHT22;7790;53.022;12.968;2023-04-21T16:33:34;20.00;45.50
15384;DHT22;7790;53.022;12.968;2023-04-21T16:37:36;20.10;45.20
15384;DHT22;7790;53.022;12.968;2023-04-21T16:41:39;20.00;45.50
15384;DHT22;7790;53.022;12.968;2023-04-21T16:45:40;20.00;45.50
15384;DHT22;7790;53.022;12.968;2023-04-21T16:49:41;20.00;45.60
15384;DHT22;7790;53.022;12.968;2023-04-21T16:53:42;20.00;45.70
15384;DHT22;7790;53.022;12.968;2023-04-21T16:57:43;19.90;45.60
15384;DHT22;7790;53.022;12.968;2023-04-21T17:01:44;20.00;45.80
15384;DHT22;7790;53.022;12.968;2023-04-21T17:05:48;19.90;45.80
15384;DHT22;7790;53.022;12.968;2023-04-21T17:09:49;19.90;45.90
15384;DHT22;7790;53.022;12.968;2023-04-21T17:13:50;19.90;46.00
15384;DHT22;7790;53.022;12.968;2023-04-21T17:17:51;19.90;46.00
15384;DHT22;7790;53.022;12.968;2023-04-21T17:21:52;19.90;46.10
15384;DHT22;7790;53.022;12.968;2023-04-21T17:25:53;19.90;46.10
15384;DHT22;7790;53.022;12.968;2023-04-21T17:29:54;19.90;46.20
15384;DHT22;7790;53.022;12.968;2023-04-21T17:33:55;19.90;46.20
15384;DHT22;7790;53.022;12.968;2023-04-21T17:37:58;19.80;46.30
15384;DHT22;7790;53.022;12.968;2023-04-21T17:41:59;19.80;46.30
15384;DHT22;7790;53.022;12.968;2023-04-21T17:46:01;19.80;46.30
15384;DHT22;7790;53.022;12.968;2023-04-21T17:50:02;19.80;46.30
15384;DHT22;7790;53.022;12.968;2023-04-21T17:54:03;19.80;46.40
15384;DHT22;7790;53.022;12.968;2023-04-21T17:58:04;19.80;46.40
15384;DHT22;7790;53.022;12.968;2023-04-21T18:02:06;19.80;46.40
15384;DHT22;7790;53.022;12.968;2023-04-21T18:06:07;19.80;46.50
15384;DHT22;7790;53.022;12.968;2023-04-21T18:10:10;19.80;46.50
15384;DHT22;7790;53.022;12.968;2023-04-21T18:14:12;19.80;46.50
15384;DHT22;7790;53.022;12.968;2023-04-21T18:18:13;19.80;46.60
15384;DHT22;7790;53.022;12.968;2023-04-21T18:22:14;19.80;46.50
15384;DHT22;7790;53.022;12.968;2023-04-21T18:26:14;19.80;46.50
15384;DHT22;7790;53.022;12.968;2023-04-21T18:30:15;19.80;46.60
15384;DHT22;7790;53.022;12.968;2023-04-21T18:34:16;19.80;46.60
15384;DHT22;7790;53.022;12.968;2023-04-21T18:38:17;19.80;46.60
15384;DHT22;7790;53.022;12.968;2023-04-21T18:42:18;19.70;46.60
15384;DHT22;7790;53.022;12.968;2023-04-21T18:46:19;19.80;46.20
15384;DHT22;7790;53.022;12.968;2023-04-21T18:50:20;19.80;46.30
15384;DHT22;7790;53.022;12.968;2023-04-21T18:54:21;19.80;46.50
15384;DHT22;7790;53.022;12.968;2023-04-21T18:58:22;19.80;46.60
15384;DHT22;7790;53.022;12.968;2023-04-21T19:02:23;19.80;46.60
15384;DHT22;7790;53.022;12.968;2023-04-21T19:06:24;19.80;47.00
15384;DHT22;7790;53.022;12.968;2023-04-21T19:10:26;19.80;47.50
15384;DHT22;7790;53.022;12.968;2023-04-21T19:14:27;19.90;47.50
15384;DHT22;7790;53.022;12.968;2023-04-21T19:18:28;19.90;47.20
15384;DHT22;7790;53.022;12.968;2023-04-21T19:22:29;19.90;47.50
15384;DHT22;7790;53.022;12.968;2023-04-21T19:26:31;19.90;47.90
15384;DHT22;7790;53.022;12.968;2023-04-21T19:30:32;20.10;48.50
15384;DHT22;7790;53.022;12.968;2023-04-21T19:34:33;20.00;48.60
15384;DHT22;7790;53.022;12.968;2023-04-21T19:38:34;20.00;48.80
15384;DHT22;7790;53.022;12.968;2023-04-21T19:42:35;19.90;49.10
15384;DHT22;7790;53.022;12.968;2023-04-21T19:46:37;19.90;49.20
15384;DHT22;7790;53.022;12.968;2023-04-21T19:50:38;19.90;49.10
15384;DHT22;7790;53.022;12.968;2023-04-21T19:54:38;19.90;49.10
15384;DHT22;7790;53.022;12.968;2023-04-21T19:58:39;19.90;49.20
15384;DHT22;7790;53.022;12.968;2023-04-21T20:02:40;19.90;49.10
15384;DHT22;7790;53.022;12.968;2023-04-21T20:06:42;19.90;49.10
15384;DHT22;7790;53.022;12.968;2023-04-21T20:10:43;19.70;47.50
15384;DHT22;7790;53.022;12.968;2023-04-21T20:14:44;19.70;47.60
15384;DHT22;7790;53.022;12.968;2023-04-21T20:18:45;19.80;48.10
15384;DHT22;7790;53.022;12.968;2023-04-21T20:22:46;19.80;48.50
15384;DHT22;7790;53.022;12.968;2023-04-21T20:26:48;19.80;48.60
15384;DHT22;7790;53.022;12.968;2023-04-21T20:30:49;19.80;48.60
15384;DHT22;7790;53.022;12.968;2023-04-21T20:34:50;19.80;48.70
15384;DHT22;7790;53.022;12.968;2023-04-21T20:38:52;19.80;48.70
15384;DHT22;7790;53.022;12.968;2023-04-21T20:42:53;19.80;48.70
15384;DHT22;7790;53.022;12.968;2023-04-21T20:46:55;19.80;48.70
15384;DHT22;7790;53.022;12.968;2023-04-21T20:50:55;19.70;48.70
15384;DHT22;7790;53.022;12.968;2023-04-21T20:54:56;19.70;48.70
15384;DHT22;7790;53.022;12.968;2023-04-21T20:58:57;19.70;48.50
15384;DHT22;7790;53.022;12.968;2023-04-21T21:02:58;19.70;48.60
15384;DHT22;7790;53.022;12.968;2023-04-21T21:06:59;19.70;48.60
15384;DHT22;7790;53.022;12.968;2023-04-21T21:11:01;19.80;48.70
15384;DHT22;7790;53.022;12.968;2023-04-21T21:15:02;19.70;48.40
15384;DHT22;7790;53.022;12.968;2023-04-21T21:19:03;19.60;48.10
15384;DHT22;7790;53.022;12.968;2023-04-21T21:23:04;19.70;48.10
15384;DHT22;7790;53.022;12.968;2023-04-21T21:27:06;19.70;48.80
15384;DHT22;7790;53.022;12.968;2023-04-21T21:31:07;19.60;48.30
15384;DHT22;7790;53.022;12.968;2023-04-21T21:35:08;19.60;48.30
15384;DHT22;7790;53.022;12.968;2023-04-21T21:39:10;19.60;48.30
15384;DHT22;7790;53.022;12.968;2023-04-21T21:43:10;19.60;48.30
15384;DHT22;7790;53.022;12.968;2023-04-21T21:47:11;19.60;48.20
15384;DHT22;7790;53.022;12.968;2023-04-21T21:51:12;19.60;48.20
15384;DHT22;7790;53.022;12.968;2023-04-21T21:55:13;19.50;48.10
15384;DHT22;7790;53.022;12.968;2023-04-21T21:59:14;19.50;48.00
15384;DHT22;7790;53.022;12.968;2023-04-21T22:03:15;19.50;48.00
15384;DHT22;7790;53.022;12.968;2023-04-21T22:07:16;19.50;48.00
15384;DHT22;7790;53.022;12.968;2023-04-21T22:11:18;19.50;48.00
15384;DHT22;7790;53.022;12.968;2023-04-21T22:15:19;19.40;47.90
15384;DHT22;7790;53.022;12.968;2023-04-21T22:19:20;19.50;47.80
15384;DHT22;7790;53.022;12.968;2023-04-21T22:23:22;19.40;47.80
15384;DHT22;7790;53.022;12.968;2023-04-21T22:27:23;19.40;47.70
15384;DHT22;7790;53.022;12.968;2023-04-21T22:31:23;19.40;48.20
15384;DHT22;7790;53.022;12.968;2023-04-21T22:35:24;19.40;47.60
15384;DHT22;7790;53.022;12.968;2023-04-21T22:39:25;19.40;47.60
15384;DHT22;7790;53.022;12.968;2023-04-21T22:43:28;19.40;47.60
15384;DHT22;7790;53.022;12.968;2023-04-21T22:47:29;19.30;47.50
15384;DHT22;7790;53.022;12.968;2023-04-21T22:51:30;19.40;47.60
15384;DHT22;7790;53.022;12.968;2023-04-21T22:55:32;19.40;47.50
15384;DHT22;7790;53.022;12.968;2023-04-21T22:59:33;19.40;47.50
15384;DHT22;7790;53.022;12.968;2023-04-21T23:03:34;19.30;47.90
15384;DHT22;7790;53.022;12.968;2023-04-21T23:07:35;19.30;47.40
15384;DHT22;7790;53.022;12.968;2023-04-21T23:11:36;19.30;47.40
15384;DHT22;7790;53.022;12.968;2023-04-21T23:15:37;19.30;47.40
15384;DHT22;7790;53.022;12.968;2023-04-21T23:19:38;19.30;47.50
15384;DHT22;7790;53.022;12.968;2023-04-21T23:23:39;19.20;47.40
15384;DHT22;7790;53.022;12.968;2023-04-21T23:27:39;19.20;47.40
15384;DHT22;7790;53.022;12.968;2023-04-21T23:31:40;19.20;47.50
15384;DHT22;7790;53.022;12.968;2023-04-21T23:35:41;19.20;47.40
15384;DHT22;7790;53.022;12.968;2023-04-21T23:39:42;19.20;47.40
15384;DHT22;7790;53.022;12.968;2023-04-21T23:43:43;19.20;47.40
15384;DHT22;7790;53.022;12.968;2023-04-21T23:47:44;19.20;47.40
15384;DHT22;7790;53.022;12.968;2023-04-21T23:51:45;19.10;47.40
15384;DHT22;7790;53.022;12.968;2023-04-21T23:55:46;19.10;47.40
15384;DHT22;7790;53.022;12.968;2023-04-21T23:59:47;19.10;47.40
